sensor_id;sensor_type;location;lat;lon;timestamp;temperature;humidity
41668;DHT22;27356;50.920;5.350;2023-03-01T00:01:11;0.60;99.90
41668;DHT22;27356;50.920;5.350;2023-03-01T00:03:37;0.40;99.90
41668;DHT22;27356;50.920;5.350;2023-03-01T00:06:03;0.30;99.90
41668;DHT22;27356;50.920;5.350;2023-03-01T00:08:33;0.30;99.90
41668;DHT22;27356;50.920;5.350;2023-03-01T00:11:23;0.20;99.90
41668;DHT22;27356;50.920;5.350;2023-03-01T00:13:51;0.10;99.90
41668;DHT22;27356;50.920;5.350;2023-03-01T00:16:24;0.00;99.90
41668;DHT22;27356;50.920;5.350;2023-03-01T00:18:50;0.00;99.90
41668;DHT22;27356;50.920;5.350;2023-03-01T00:21:16;0.00;99.90
41668;DHT22;27356;50.920;5.350;2023-03-01T00:23:42;0.00;99.90
41668;DHT22;27356;50.920;5.350;2023-03-01T00:26:10;0.10;99.90
41668;DHT22;27356;50.920;5.350;2023-03-01T00:28:37;0.10;99.90
41668;DHT22;27356;50.920;5.350;2023-03-01T00:31:14;0.00;99.90
41668;DHT22;27356;50.920;5.350;2023-03-01T00:33:41;0.00;99.90
41668;DHT22;27356;50.920;5.350;2023-03-01T00:36:07;0.00;99.90
41668;DHT22;27356;50.920;5.350;2023-03-01T00:38:42;-0.10;99.90
41668;DHT22;27356;50.920;5.350;2023-03-01T00:41:11;-0.10;99.90
41668;DHT22;27356;50.920;5.350;2023-03-01T00:43:37;-0.10;99.90
41668;DHT22;27356;50.920;5.350;2023-03-01T00:46:09;-0.20;99.90
41668;DHT22;27356;50.920;5.350;2023-03-01T00:48:35;-0.30;99.90
41668;DHT22;27356;50.920;5.350;2023-03-01T00:51:13;-0.40;99.90
41668;DHT22;27356;50.920;5.350;2023-03-01T00:53:39;-0.60;99.90
41668;DHT22;27356;50.920;5.350;2023-03-01T00:56:06;-0.50;99.90
41668;DHT22;27356;50.920;5.350;2023-03-01T00:58:36;-0.50;99.90
41668;DHT22;27356;50.920;5.350;2023-03-01T01:01:08;-0.30;99.90
41668;DHT22;27356;50.920;5.350;2023-03-01T01:03:44;-0.30;99.90
41668;DHT22;27356;50.920;5.350;2023-03-01T01:06:14;-0.20;99.90
41668;DHT22;27356;50.920;5.350;2023-03-01T01:08:40;-0.10;99.90
41668;DHT22;27356;50.920;5.350;2023-03-01T01:11:09;-0.10;99.90
41668;DHT22;27356;50.920;5.350;2023-03-01T01:13:35;-0.10;99.90
41668;DHT22;27356;50.920;5.350;2023-03-01T01:16:01;0.00;99.90
41668;DHT22;27356;50.920;5.350;2023-03-01T01:18:27;0.10;99.90
41668;DHT22;27356;50.920;5.350;2023-03-01T01:20:53;0.00;99.90
41668;DHT22;27356;50.920;5.350;2023-03-01T01:23:18;-0.10;99.90
41668;DHT22;27356;50.920;5.350;2023-03-01T01:25:44;-0.20;99.90
41668;DHT22;27356;50.920;5.350;2023-03-01T01:28:10;-0.10;99.90
41668;DHT22;27356;50.920;5.350;2023-03-01T01:30:35;0.00;99.90
41668;DHT22;27356;50.920;5.350;2023-03-01T01:33:01;-0.10;99.90
41668;DHT22;27356;50.920;5.350;2023-03-01T01:35:27;-0.20;99.90
41668;DHT22;27356;50.920;5.350;2023-03-01T01:37:53;-0.40;99.90
41668;DHT22;27356;50.920;5.350;2023-03-01T01:40:19;-0.20;99.90
41668;DHT22;27356;50.920;5.350;2023-03-01T01:42:47;-0.30;99.90
41668;DHT22;27356;50.920;5.350;2023-03-01T01:45:34;-0.30;99.90
41668;DHT22;27356;50.920;5.350;2023-03-01T01:48:14;-0.40;99.90
41668;DHT22;27356;50.920;5.350;2023-03-01T01:50:42;-0.50;99.90
41668;DHT22;27356;50.920;5.350;2023-03-01T01:53:13;-0.50;99.90
41668;DHT22;27356;50.920;5.350;2023-03-01T01:55:43;-0.60;99.90
41668;DHT22;27356;50.920;5.350;2023-03-01T01:58:14;-0.50;99.90
41668;DHT22;27356;50.920;5.350;2023-03-01T02:00:41;-0.60;99.90
41668;DHT22;27356;50.920;5.350;2023-03-01T02:03:18;-0.70;99.90
41668;DHT22;27356;50.920;5.350;2023-03-01T02:05:49;-0.80;99.90
41668;DHT22;27356;50.920;5.350;2023-03-01T02:08:18;-0.90;99.90
41668;DHT22;27356;50.920;5.350;2023-03-01T02:10:45;-0.90;99.90
41668;DHT22;27356;50.920;5.350;2023-03-01T02:13:12;-1.00;99.90
41668;DHT22;27356;50.920;5.350;2023-03-01T02:15:40;-0.90;99.90
41668;DHT22;27356;50.920;5.350;2023-03-01T02:18:07;-0.90;99.90
41668;DHT22;27356;50.920;5.350;2023-03-01T02:23:29;-0.80;99.90
41668;DHT22;27356;50.920;5.350;2023-03-01T02:28:44;-0.70;99.90
41668;DHT22;27356;50.920;5.350;2023-03-01T02:31:16;-0.90;99.90
41668;DHT22;27356;50.920;5.350;2023-03-01T02:34:01;-1.00;99.90
41668;DHT22;27356;50.920;5.350;2023-03-01T02:36:34;-1.00;99.90
41668;DHT22;27356;50.920;5.350;2023-03-01T02:39:03;-1.20;99.90
41668;DHT22;27356;50.920;5.350;2023-03-01T02:41:32;-1.30;99.90
41668;DHT22;27356;50.920;5.350;2023-03-01T02:43:59;-1.10;99.90
41668;DHT22;27356;50.920;5.350;2023-03-01T02:46:26;-1.00;99.90
41668;DHT22;27356;50.920;5.350;2023-03-01T02:48:53;-0.90;99.90
41668;DHT22;27356;50.920;5.350;2023-03-01T02:51:26;-0.80;99.90
41668;DHT22;27356;50.920;5.350;2023-03-01T02:54:12;-0.90;99.90
41668;DHT22;27356;50.920;5.350;2023-03-01T02:56:39;-0.90;99.90
41668;DHT22;27356;50.920;5.350;2023-03-01T02:59:06;-0.80;99.90
41668;DHT22;27356;50.920;5.350;2023-03-01T03:01:32;-0.90;99.90
41668;DHT22;27356;50.920;5.350;2023-03-01T03:04:05;-0.90;99.90
41668;DHT22;27356;50.920;5.350;2023-03-01T03:06:32;-0.80;99.90
41668;DHT22;27356;50.920;5.350;2023-03-01T03:08:58;-0.80;99.90
41668;DHT22;27356;50.920;5.350;2023-03-01T03:11:24;-0.90;99.90
41668;DHT22;27356;50.920;5.350;2023-03-01T03:13:50;-0.90;99.90
41668;DHT22;27356;50.920;5.350;2023-03-01T03:16:17;-0.90;99.90
41668;DHT22;27356;50.920;5.350;2023-03-01T03:18:44;-1.00;99.90
41668;DHT22;27356;50.920;5.350;2023-03-01T03:21:11;-0.90;99.90
41668;DHT22;27356;50.920;5.350;2023-03-01T03:23:39;-0.80;99.90
41668;DHT22;27356;50.920;5.350;2023-03-01T03:26:05;-0.90;99.90
41668;DHT22;27356;50.920;5.350;2023-03-01T03:28:32;-1.00;99.90
41668;DHT22;27356;50.920;5.350;2023-03-01T03:30:58;-1.00;99.90
41668;DHT22;27356;50.920;5.350;2023-03-01T03:33:29;-1.00;99.90
41668;DHT22;27356;50.920;5.350;2023-03-01T03:35:55;-1.10;99.90
41668;DHT22;27356;50.920;5.350;2023-03-01T03:38:20;-1.20;99.90
41668;DHT22;27356;50.920;5.350;2023-03-01T03:40:55;-1.20;99.90
41668;DHT22;27356;50.920;5.350;2023-03-01T03:43:26;-1.20;99.90
41668;DHT22;27356;50.920;5.350;2023-03-01T03:45:52;-1.20;99.90
41668;DHT22;27356;50.920;5.350;2023-03-01T03:48:20;-1.30;99.90
41668;DHT22;27356;50.920;5.350;2023-03-01T03:50:51;-1.30;99.90
41668;DHT22;27356;50.920;5.350;2023-03-01T03:53:17;-1.40;99.90
41668;DHT22;27356;50.920;5.350;2023-03-01T03:55:43;-1.40;99.90
41668;DHT22;27356;50.920;5.350;2023-03-01T03:58:10;-1.30;99.90
41668;DHT22;27356;50.920;5.350;2023-03-01T04:00:44;-1.20;99.90
41668;DHT22;27356;50.920;5.350;2023-03-01T04:03:11;-1.20;99.90
41668;DHT22;27356;50.920;5.350;2023-03-01T04:05:38;-1.10;99.90
41668;DHT22;27356;50.920;5.350;2023-03-01T04:08:05;-1.00;99.90
41668;DHT22;27356;50.920;5.350;2023-03-01T04:10:39;-1.00;99.90
41668;DHT22;27356;50.920;5.350;2023-03-01T04:13:07;-1.00;99.90
41668;DHT22;27356;50.920;5.350;2023-03-01T04:15:33;-1.00;99.90
41668;DHT22;27356;50.920;5.350;2023-03-01T04:17:59;-1.10;99.90
41668;DHT22;27356;50.920;5.350;2023-03-01T04:20:30;-1.20;99.90
41668;DHT22;27356;50.920;5.350;2023-03-01T04:23:02;-1.20;99.90
41668;DHT22;27356;50.920;5.350;2023-03-01T04:25:38;-1.20;99.90
41668;DHT22;27356;50.920;5.350;2023-03-01T04:28:04;-1.10;99.90
41668;DHT22;27356;50.920;5.350;2023-03-01T04:30:30;-1.20;99.90
41668;DHT22;27356;50.920;5.350;2023-03-01T04:33:04;-1.40;99.90
41668;DHT22;27356;50.920;5.350;2023-03-01T04:35:31;-1.40;99.90
41668;DHT22;27356;50.920;5.350;2023-03-01T04:37:57;-1.30;99.90
41668;DHT22;27356;50.920;5.350;2023-03-01T04:40:23;-1.40;99.90
41668;DHT22;27356;50.920;5.350;2023-03-01T04:42:49;-1.40;99.90
41668;DHT22;27356;50.920;5.350;2023-03-01T04:45:14;-1.40;99.90
41668;DHT22;27356;50.920;5.350;2023-03-01T04:47:42;-1.40;99.90
41668;DHT22;27356;50.920;5.350;2023-03-01T04:50:09;-1.60;99.90
41668;DHT22;27356;50.920;5.350;2023-03-01T04:52:35;-1.50;99.90
41668;DHT22;27356;50.920;5.350;2023-03-01T04:55:01;-1.50;99.90
41668;DHT22;27356;50.920;5.350;2023-03-01T04:57:27;-1.60;99.90
41668;DHT22;27356;50.920;5.350;2023-03-01T04:59:53;-1.50;99.90
41668;DHT22;27356;50.920;5.350;2023-03-01T05:02:19;-1.60;99.90
41668;DHT22;27356;50.920;5.350;2023-03-01T05:04:44;-1.70;99.90
41668;DHT22;27356;50.920;5.350;2023-03-01T05:07:10;-1.70;99.90
41668;DHT22;27356;50.920;5.350;2023-03-01T05:09:38;-1.70;99.90
41668;DHT22;27356;50.920;5.350;2023-03-01T05:12:04;-1.80;99.90
41668;DHT22;27356;50.920;5.350;2023-03-01T05:14:30;-2.00;99.90
41668;DHT22;27356;50.920;5.350;2023-03-01T05:16:56;-2.00;99.90
41668;DHT22;27356;50.920;5.350;2023-03-01T05:19:29;-2.00;99.90
41668;DHT22;27356;50.920;5.350;2023-03-01T05:21:57;-1.80;99.90
41668;DHT22;27356;50.920;5.350;2023-03-01T05:24:34;-1.80;99.90
41668;DHT22;27356;50.920;5.350;2023-03-01T05:27:01;-1.80;99.90
41668;DHT22;27356;50.920;5.350;2023-03-01T05:29:28;-1.60;99.90
41668;DHT22;27356;50.920;5.350;2023-03-01T05:31:57;-1.60;99.90
41668;DHT22;27356;50.920;5.350;2023-03-01T05:34:25;-1.60;99.90
41668;DHT22;27356;50.920;5.350;2023-03-01T05:36:52;-1.50;99.90
41668;DHT22;27356;50.920;5.350;2023-03-01T05:39:20;-1.60;99.90
41668;DHT22;27356;50.920;5.350;2023-03-01T05:41:46;-1.70;99.90
41668;DHT22;27356;50.920;5.350;2023-03-01T05:44:13;-1.90;99.90
41668;DHT22;27356;50.920;5.350;2023-03-01T05:46:38;-1.90;99.90
41668;DHT22;27356;50.920;5.350;2023-03-01T05:49:04;-1.90;99.90
41668;DHT22;27356;50.920;5.350;2023-03-01T05:51:30;-1.80;99.90
41668;DHT22;27356;50.920;5.350;2023-03-01T05:53:56;-1.60;99.90
41668;DHT22;27356;50.920;5.350;2023-03-01T05:56:22;-1.60;99.90
41668;DHT22;27356;50.920;5.350;2023-03-01T05:58:50;-1.80;99.90
41668;DHT22;27356;50.920;5.350;2023-03-01T06:01:18;-1.70;99.90
41668;DHT22;27356;50.920;5.350;2023-03-01T06:03:44;-1.80;99.90
41668;DHT22;27356;50.920;5.350;2023-03-01T06:06:10;-1.80;99.90
41668;DHT22;27356;50.920;5.350;2023-03-01T06:08:36;-1.90;99.90
41668;DHT22;27356;50.920;5.350;2023-03-01T06:11:01;-1.90;99.90
41668;DHT22;27356;50.920;5.350;2023-03-01T06:13:27;-1.90;99.90
41668;DHT22;27356;50.920;5.350;2023-03-01T06:15:53;-1.90;99.90
41668;DHT22;27356;50.920;5.350;2023-03-01T06:18:18;-1.90;99.90
41668;DHT22;27356;50.920;5.350;2023-03-01T06:20:44;-1.80;99.90
41668;DHT22;27356;50.920;5.350;2023-03-01T06:23:10;-1.80;99.90
41668;DHT22;27356;50.920;5.350;2023-03-01T06:25:36;-1.90;99.90
41668;DHT22;27356;50.920;5.350;2023-03-01T06:28:02;-1.80;99.90
41668;DHT22;27356;50.920;5.350;2023-03-01T06:30:29;-1.90;99.90
41668;DHT22;27356;50.920;5.350;2023-03-01T06:32:56;-1.90;99.90
41668;DHT22;27356;50.920;5.350;2023-03-01T06:35:26;-1.90;99.90
41668;DHT22;27356;50.920;5.350;2023-03-01T06:37:55;-2.00;99.90
41668;DHT22;27356;50.920;5.350;2023-03-01T06:40:21;-1.90;99.90
41668;DHT22;27356;50.920;5.350;2023-03-01T06:42:49;-1.90;99.90
41668;DHT22;27356;50.920;5.350;2023-03-01T06:45:15;-1.90;99.90
41668;DHT22;27356;50.920;5.350;2023-03-01T06:47:41;-1.70;99.90
41668;DHT22;27356;50.920;5.350;2023-03-01T06:50:07;-1.60;99.90
41668;DHT22;27356;50.920;5.350;2023-03-01T06:52:33;-1.70;99.90
41668;DHT22;27356;50.920;5.350;2023-03-01T06:54:59;-1.60;99.90
41668;DHT22;27356;50.920;5.350;2023-03-01T06:57:25;-1.50;99.90
41668;DHT22;27356;50.920;5.350;2023-03-01T06:59:51;-1.50;99.90
41668;DHT22;27356;50.920;5.350;2023-03-01T07:02:17;-1.20;99.90
41668;DHT22;27356;50.920;5.350;2023-03-01T07:04:43;-0.90;99.90
41668;DHT22;27356;50.920;5.350;2023-03-01T07:07:08;-0.60;99.90
41668;DHT22;27356;50.920;5.350;2023-03-01T07:09:34;-0.10;99.90
41668;DHT22;27356;50.920;5.350;2023-03-01T07:12:00;0.30;99.90
41668;DHT22;27356;50.920;5.350;2023-03-01T07:14:26;0.70;99.90
41668;DHT22;27356;50.920;5.350;2023-03-01T07:16:55;1.00;99.90
41668;DHT22;27356;50.920;5.350;2023-03-01T07:19:22;1.30;99.90
41668;DHT22;27356;50.920;5.350;2023-03-01T07:21:48;1.50;99.90
41668;DHT22;27356;50.920;5.350;2023-03-01T07:24:16;1.60;99.90
41668;DHT22;27356;50.920;5.350;2023-03-01T07:26:42;2.00;99.90
41668;DHT22;27356;50.920;5.350;2023-03-01T07:29:10;2.20;99.90
41668;DHT22;27356;50.920;5.350;2023-03-01T07:31:36;2.30;99.90
41668;DHT22;27356;50.920;5.350;2023-03-01T07:34:02;2.50;99.90
41668;DHT22;27356;50.920;5.350;2023-03-01T07:36:28;2.80;99.90
41668;DHT22;27356;50.920;5.350;2023-03-01T07:38:53;3.00;99.90
41668;DHT22;27356;50.920;5.350;2023-03-01T07:43:50;2.90;99.90
41668;DHT22;27356;50.920;5.350;2023-03-01T07:46:16;3.10;99.90
41668;DHT22;27356;50.920;5.350;2023-03-01T07:48:43;3.00;99.90
41668;DHT22;27356;50.920;5.350;2023-03-01T07:51:10;3.20;99.90
41668;DHT22;27356;50.920;5.350;2023-03-01T07:53:36;3.20;99.90
41668;DHT22;27356;50.920;5.350;2023-03-01T07:56:08;3.60;99.90
41668;DHT22;27356;50.920;5.350;2023-03-01T07:58:35;4.00;99.90
41668;DHT22;27356;50.920;5.350;2023-03-01T08:01:06;3.90;99.70
41668;DHT22;27356;50.920;5.350;2023-03-01T08:03:32;4.00;99.80
41668;DHT22;27356;50.920;5.350;2023-03-01T08:06:03;4.00;99.70
41668;DHT22;27356;50.920;5.350;2023-03-01T08:08:29;4.10;99.60
41668;DHT22;27356;50.920;5.350;2023-03-01T08:10:59;4.50;99.00
41668;DHT22;27356;50.920;5.350;2023-03-01T08:13:26;4.60;98.30
41668;DHT22;27356;50.920;5.350;2023-03-01T08:15:52;4.90;98.40
41668;DHT22;27356;50.920;5.350;2023-03-01T08:18:20;5.20;97.80
41668;DHT22;27356;50.920;5.350;2023-03-01T08:20:46;5.20;97.30
41668;DHT22;27356;50.920;5.350;2023-03-01T08:23:12;4.90;97.20
41668;DHT22;27356;50.920;5.350;2023-03-01T08:25:38;5.00;97.00
41668;DHT22;27356;50.920;5.350;2023-03-01T08:28:04;4.50;97.30
41668;DHT22;27356;50.920;5.350;2023-03-01T08:30:30;4.80;97.30
41668;DHT22;27356;50.920;5.350;2023-03-01T08:32:56;4.70;97.20
41668;DHT22;27356;50.920;5.350;2023-03-01T08:35:22;4.40;97.80
41668;DHT22;27356;50.920;5.350;2023-03-01T08:37:48;4.50;97.40
41668;DHT22;27356;50.920;5.350;2023-03-01T08:40:14;4.20;97.60
41668;DHT22;27356;50.920;5.350;2023-03-01T08:42:41;4.40;97.30
41668;DHT22;27356;50.920;5.350;2023-03-01T08:45:09;4.50;98.30
41668;DHT22;27356;50.920;5.350;2023-03-01T08:47:35;5.00;97.10
41668;DHT22;27356;50.920;5.350;2023-03-01T08:50:02;4.90;96.30
41668;DHT22;27356;50.920;5.350;2023-03-01T08:52:27;5.00;96.80
41668;DHT22;27356;50.920;5.350;2023-03-01T08:54:54;5.00;96.40
41668;DHT22;27356;50.920;5.350;2023-03-01T08:57:19;5.00;96.70
41668;DHT22;27356;50.920;5.350;2023-03-01T08:59:45;5.20;96.70
41668;DHT22;27356;50.920;5.350;2023-03-01T09:02:13;5.80;95.10
41668;DHT22;27356;50.920;5.350;2023-03-01T09:04:40;5.80;94.60
41668;DHT22;27356;50.920;5.350;2023-03-01T09:07:05;5.00;95.70
41668;DHT22;27356;50.920;5.350;2023-03-01T09:09:31;5.20;95.40
41668;DHT22;27356;50.920;5.350;2023-03-01T09:11:57;5.10;95.40
41668;DHT22;27356;50.920;5.350;2023-03-01T09:14:23;5.30;95.50
41668;DHT22;27356;50.920;5.350;2023-03-01T09:16:49;5.40;95.20
41668;DHT22;27356;50.920;5.350;2023-03-01T09:19:14;5.50;94.70
41668;DHT22;27356;50.920;5.350;2023-03-01T09:21:40;5.70;94.30
41668;DHT22;27356;50.920;5.350;2023-03-01T09:24:12;6.10;94.50
41668;DHT22;27356;50.920;5.350;2023-03-01T09:26:38;6.10;94.50
41668;DHT22;27356;50.920;5.350;2023-03-01T09:29:04;6.60;93.10
41668;DHT22;27356;50.920;5.350;2023-03-01T09:31:30;6.50;92.90
41668;DHT22;27356;50.920;5.350;2023-03-01T09:33:55;6.80;93.00
41668;DHT22;27356;50.920;5.350;2023-03-01T09:36:23;6.00;93.50
41668;DHT22;27356;50.920;5.350;2023-03-01T09:38:53;5.80;93.40
41668;DHT22;27356;50.920;5.350;2023-03-01T09:46:52;4.30;95.70
41668;DHT22;27356;50.920;5.350;2023-03-01T09:49:30;4.00;96.40
41668;DHT22;27356;50.920;5.350;2023-03-01T09:52:07;3.70;97.00
41668;DHT22;27356;50.920;5.350;2023-03-01T09:54:38;3.70;97.00
41668;DHT22;27356;50.920;5.350;2023-03-01T09:57:17;3.60;97.50
41668;DHT22;27356;50.920;5.350;2023-03-01T09:59:48;3.60;97.80
41668;DHT22;27356;50.920;5.350;2023-03-01T10:02:23;3.60;98.40
41668;DHT22;27356;50.920;5.350;2023-03-01T10:04:57;3.50;97.60
41668;DHT22;27356;50.920;5.350;2023-03-01T10:09:57;3.30;98.90
41668;DHT22;27356;50.920;5.350;2023-03-01T10:12:27;3.50;98.50
41668;DHT22;27356;50.920;5.350;2023-03-01T10:15:19;3.60;98.30
41668;DHT22;27356;50.920;5.350;2023-03-01T10:20:33;3.70;97.90
41668;DHT22;27356;50.920;5.350;2023-03-01T10:22:59;3.70;98.00
41668;DHT22;27356;50.920;5.350;2023-03-01T10:25:53;3.70;97.90
41668;DHT22;27356;50.920;5.350;2023-03-01T10:31:15;3.60;97.90
41668;DHT22;27356;50.920;5.350;2023-03-01T10:33:44;3.70;97.60
41668;DHT22;27356;50.920;5.350;2023-03-01T10:36:09;4.00;96.90
41668;DHT22;27356;50.920;5.350;2023-03-01T10:38:56;3.90;96.80
41668;DHT22;27356;50.920;5.350;2023-03-01T10:41:24;3.80;96.50
41668;DHT22;27356;50.920;5.350;2023-03-01T10:43:54;3.70;97.00
41668;DHT22;27356;50.920;5.350;2023-03-01T10:46:30;3.70;97.30
41668;DHT22;27356;50.920;5.350;2023-03-01T10:49:17;4.00;96.50
41668;DHT22;27356;50.920;5.350;2023-03-01T10:51:46;3.90;96.60
41668;DHT22;27356;50.920;5.350;2023-03-01T10:54:32;3.80;96.60
41668;DHT22;27356;50.920;5.350;2023-03-01T10:57:03;3.80;96.90
41668;DHT22;27356;50.920;5.350;2023-03-01T10:59:33;3.90;96.30
41668;DHT22;27356;50.920;5.350;2023-03-01T11:02:23;3.90;96.50
41668;DHT22;27356;50.920;5.350;2023-03-01T11:07:54;4.10;95.60
41668;DHT22;27356;50.920;5.350;2023-03-01T11:10:32;4.20;95.90
41668;DHT22;27356;50.920;5.350;2023-03-01T11:13:18;4.30;95.70
41668;DHT22;27356;50.920;5.350;2023-03-01T11:15:59;4.10;95.60
41668;DHT22;27356;50.920;5.350;2023-03-01T11:18:26;4.30;95.30
41668;DHT22;27356;50.920;5.350;2023-03-01T11:20:53;4.30;95.60
41668;DHT22;27356;50.920;5.350;2023-03-01T11:23:20;4.50;94.50
41668;DHT22;27356;50.920;5.350;2023-03-01T11:26:02;4.50;94.70
41668;DHT22;27356;50.920;5.350;2023-03-01T11:28:30;4.40;94.70
41668;DHT22;27356;50.920;5.350;2023-03-01T11:31:04;4.50;95.20
41668;DHT22;27356;50.920;5.350;2023-03-01T11:38:56;4.90;94.40
41668;DHT22;27356;50.920;5.350;2023-03-01T11:41:30;4.80;94.40
41668;DHT22;27356;50.920;5.350;2023-03-01T11:51:55;4.70;94.50
41668;DHT22;27356;50.920;5.350;2023-03-01T12:09:51;5.10;93.00
41668;DHT22;27356;50.920;5.350;2023-03-01T12:25:41;5.30;92.20
41668;DHT22;27356;50.920;5.350;2023-03-01T12:31:36;5.50;92.90
41668;DHT22;27356;50.920;5.350;2023-03-01T12:40:46;5.50;91.90
41668;DHT22;27356;50.920;5.350;2023-03-01T12:43:08;5.50;91.90
41668;DHT22;27356;50.920;5.350;2023-03-01T12:51:07;5.60;91.90
41668;DHT22;27356;50.920;5.350;2023-03-01T12:53:41;5.60;90.80
41668;DHT22;27356;50.920;5.350;2023-03-01T12:56:11;5.60;91.00
41668;DHT22;27356;50.920;5.350;2023-03-01T13:01:45;5.70;90.90
41668;DHT22;27356;50.920;5.350;2023-03-01T13:07:14;5.50;91.00
41668;DHT22;27356;50.920;5.350;2023-03-01T13:10:17;5.50;91.20
41668;DHT22;27356;50.920;5.350;2023-03-01T13:18:04;5.90;91.10
41668;DHT22;27356;50.920;5.350;2023-03-01T13:20:52;5.90;91.30
41668;DHT22;27356;50.920;5.350;2023-03-01T13:26:04;6.10;91.50
41668;DHT22;27356;50.920;5.350;2023-03-01T13:38:59;6.30;89.70
41668;DHT22;27356;50.920;5.350;2023-03-01T13:46:51;6.20;90.50
41668;DHT22;27356;50.920;5.350;2023-03-01T13:49:23;6.10;90.40
41668;DHT22;27356;50.920;5.350;2023-03-01T13:51:50;6.00;90.50
41668;DHT22;27356;50.920;5.350;2023-03-01T13:54:36;6.10;90.50
41668;DHT22;27356;50.920;5.350;2023-03-01T13:57:04;6.00;90.70
41668;DHT22;27356;50.920;5.350;2023-03-01T13:59:29;6.20;90.50
41668;DHT22;27356;50.920;5.350;2023-03-01T14:02:01;6.40;90.40
41668;DHT22;27356;50.920;5.350;2023-03-01T14:04:32;6.40;90.20
41668;DHT22;27356;50.920;5.350;2023-03-01T14:07:33;6.40;90.70
41668;DHT22;27356;50.920;5.350;2023-03-01T14:10:03;6.30;90.00
41668;DHT22;27356;50.920;5.350;2023-03-01T14:12:35;6.40;90.20
41668;DHT22;27356;50.920;5.350;2023-03-01T14:18:03;6.50;90.10
41668;DHT22;27356;50.920;5.350;2023-03-01T14:20:33;6.70;89.90
41668;DHT22;27356;50.920;5.350;2023-03-01T14:23:13;6.60;88.60
41668;DHT22;27356;50.920;5.350;2023-03-01T14:25:49;6.60;88.00
41668;DHT22;27356;50.920;5.350;2023-03-01T14:28:23;6.60;87.50
41668;DHT22;27356;50.920;5.350;2023-03-01T14:30:52;6.70;86.20
41668;DHT22;27356;50.920;5.350;2023-03-01T14:33:32;6.60;87.10
41668;DHT22;27356;50.920;5.350;2023-03-01T14:36:05;6.50;86.20
41668;DHT22;27356;50.920;5.350;2023-03-01T14:41:23;6.60;86.40
41668;DHT22;27356;50.920;5.350;2023-03-01T14:44:06;6.60;86.40
41668;DHT22;27356;50.920;5.350;2023-03-01T14:46:38;6.70;87.00
41668;DHT22;27356;50.920;5.350;2023-03-01T14:49:18;6.60;86.60
41668;DHT22;27356;50.920;5.350;2023-03-01T14:52:05;6.70;86.80
41668;DHT22;27356;50.920;5.350;2023-03-01T14:54:49;6.80;87.10
41668;DHT22;27356;50.920;5.350;2023-03-01T14:57:22;6.80;86.40
41668;DHT22;27356;50.920;5.350;2023-03-01T14:59:52;6.90;85.90
41668;DHT22;27356;50.920;5.350;2023-03-01T15:02:25;6.80;84.60
41668;DHT22;27356;50.920;5.350;2023-03-01T15:04:55;6.60;85.20
41668;DHT22;27356;50.920;5.350;2023-03-01T15:07:29;6.60;85.70
41668;DHT22;27356;50.920;5.350;2023-03-01T15:09:57;6.60;85.60
41668;DHT22;27356;50.920;5.350;2023-03-01T15:12:43;6.80;86.30
41668;DHT22;27356;50.920;5.350;2023-03-01T15:15:48;6.70;86.90
41668;DHT22;27356;50.920;5.350;2023-03-01T15:20:49;6.70;88.60
41668;DHT22;27356;50.920;5.350;2023-03-01T15:23:27;6.80;88.50
41668;DHT22;27356;50.920;5.350;2023-03-01T15:25:54;6.80;88.60
41668;DHT22;27356;50.920;5.350;2023-03-01T15:28:24;6.90;88.60
41668;DHT22;27356;50.920;5.350;2023-03-01T15:33:45;6.70;88.60
41668;DHT22;27356;50.920;5.350;2023-03-01T15:36:42;6.70;88.10
41668;DHT22;27356;50.920;5.350;2023-03-01T15:39:53;6.80;88.10
41668;DHT22;27356;50.920;5.350;2023-03-01T15:47:48;6.70;88.20
41668;DHT22;27356;50.920;5.350;2023-03-01T15:50:23;6.80;88.10
41668;DHT22;27356;50.920;5.350;2023-03-01T15:52:50;6.90;87.70
41668;DHT22;27356;50.920;5.350;2023-03-01T15:57:50;6.70;87.00
41668;DHT22;27356;50.920;5.350;2023-03-01T16:00:22;6.70;85.70
41668;DHT22;27356;50.920;5.350;2023-03-01T16:02:48;6.60;85.80
41668;DHT22;27356;50.920;5.350;2023-03-01T16:05:27;6.50;86.40
41668;DHT22;27356;50.920;5.350;2023-03-01T16:07:53;6.50;86.00
41668;DHT22;27356;50.920;5.350;2023-03-01T16:10:19;6.50;86.60
41668;DHT22;27356;50.920;5.350;2023-03-01T16:12:45;6.60;86.00
41668;DHT22;27356;50.920;5.350;2023-03-01T16:15:19;6.50;86.60
41668;DHT22;27356;50.920;5.350;2023-03-01T16:17:45;6.50;86.20
41668;DHT22;27356;50.920;5.350;2023-03-01T16:20:11;6.40;86.60
41668;DHT22;27356;50.920;5.350;2023-03-01T16:22:37;6.30;86.90
41668;DHT22;27356;50.920;5.350;2023-03-01T16:25:03;6.20;87.50
41668;DHT22;27356;50.920;5.350;2023-03-01T16:27:29;6.30;87.40
41668;DHT22;27356;50.920;5.350;2023-03-01T16:29:55;6.30;87.00
41668;DHT22;27356;50.920;5.350;2023-03-01T16:32:20;6.30;86.80
41668;DHT22;27356;50.920;5.350;2023-03-01T16:34:46;6.30;86.90
41668;DHT22;27356;50.920;5.350;2023-03-01T16:37:15;6.40;86.90
41668;DHT22;27356;50.920;5.350;2023-03-01T16:39:40;6.30;87.10
41668;DHT22;27356;50.920;5.350;2023-03-01T16:42:06;6.30;87.40
41668;DHT22;27356;50.920;5.350;2023-03-01T16:44:32;6.10;88.00
41668;DHT22;27356;50.920;5.350;2023-03-01T16:46:58;6.00;88.60
41668;DHT22;27356;50.920;5.350;2023-03-01T16:49:23;6.00;88.90
41668;DHT22;27356;50.920;5.350;2023-03-01T16:51:49;6.00;88.80
41668;DHT22;27356;50.920;5.350;2023-03-01T16:54:15;6.10;89.10
41668;DHT22;27356;50.920;5.350;2023-03-01T16:56:40;6.10;88.70
41668;DHT22;27356;50.920;5.350;2023-03-01T16:59:06;6.00;88.90
41668;DHT22;27356;50.920;5.350;2023-03-01T17:01:32;5.90;89.20
41668;DHT22;27356;50.920;5.350;2023-03-01T17:04:04;5.90;89.60
41668;DHT22;27356;50.920;5.350;2023-03-01T17:06:29;5.90;89.80
41668;DHT22;27356;50.920;5.350;2023-03-01T17:08:57;5.90;89.90
41668;DHT22;27356;50.920;5.350;2023-03-01T17:11:24;5.80;89.90
41668;DHT22;27356;50.920;5.350;2023-03-01T17:13:50;5.70;90.00
41668;DHT22;27356;50.920;5.350;2023-03-01T17:16:18;5.80;90.00
41668;DHT22;27356;50.920;5.350;2023-03-01T17:18:46;5.80;90.10
41668;DHT22;27356;50.920;5.350;2023-03-01T17:21:12;5.70;90.00
41668;DHT22;27356;50.920;5.350;2023-03-01T17:23:40;5.80;90.00
41668;DHT22;27356;50.920;5.350;2023-03-01T17:26:06;5.80;90.10
41668;DHT22;27356;50.920;5.350;2023-03-01T17:28:33;5.70;90.10
41668;DHT22;27356;50.920;5.350;2023-03-01T17:31:01;5.60;90.20
41668;DHT22;27356;50.920;5.350;2023-03-01T17:33:28;5.50;90.40
41668;DHT22;27356;50.920;5.350;2023-03-01T17:35:57;5.50;90.60
41668;DHT22;27356;50.920;5.350;2023-03-01T17:38:24;5.40;90.70
41668;DHT22;27356;50.920;5.350;2023-03-01T17:40:50;5.40;90.80
41668;DHT22;27356;50.920;5.350;2023-03-01T17:43:17;5.50;90.70
41668;DHT22;27356;50.920;5.350;2023-03-01T17:45:44;5.50;90.60
41668;DHT22;27356;50.920;5.350;2023-03-01T17:48:14;5.40;90.80
41668;DHT22;27356;50.920;5.350;2023-03-01T17:50:40;5.50;90.80
41668;DHT22;27356;50.920;5.350;2023-03-01T17:53:06;5.40;90.80
41668;DHT22;27356;50.920;5.350;2023-03-01T17:55:38;5.50;90.80
41668;DHT22;27356;50.920;5.350;2023-03-01T17:58:05;5.40;90.90
41668;DHT22;27356;50.920;5.350;2023-03-01T18:00:31;5.40;90.90
41668;DHT22;27356;50.920;5.350;2023-03-01T18:02:57;5.50;90.70
41668;DHT22;27356;50.920;5.350;2023-03-01T18:05:23;5.40;91.00